Time;durP1;ratioP1;P1;durP2;ratioP2;P2;SDS_P1;SDS_P2;PMS_P1;PMS_P2;Temp;Humidity;BMP_temperature;BMP_pressure;BME280_temperature;BME280_humidity;BME280_pressure;Samples;Min_cycle;Max_cycle;Signal;HPM_P1;HPM_P2
2023/07/12 00:00:37;;;;;;;;;;;;;;;18.27;64.42;100411.31;108196;1256;73333;-80
2023/07/12 00:03:06;;;;;;;;;;;;;;;18.26;64.48;100414.31;108111;1253;61860;-80
2023/07/12 00:05:33;;;;;;;;;;;;;;;18.22;64.63;100411.67;108192;1254;61477;-79
2023/07/12 00:08:00;;;;;;;;;;;;;;;18.17;64.60;100416.25;108187;1254;76989;-79
2023/07/12 00:10:29;;;;;;;;;;;;;;;18.11;64.68;100414.35;108155;1254;72758;-79
2023/07/12 00:12:57;;;;;;;;;;;;;;;18.09;64.85;100417.23;108089;1254;73535;-80
2023/07/12 00:15:25;;;;;;;;;;;;;;;18.06;65.05;100418.20;108113;1254;61815;-79
2023/07/12 00:17:52;;;;;;;;;;;;;;;18.04;65.20;100416.33;108252;1254;61321;-79
2023/07/12 00:20:19;;;;;;;;;;;;;;;18.02;65.33;100417.00;108177;1254;74504;-79
2023/07/12 00:22:46;;;;;;;;;;;;;;;18.03;65.39;100416.01;108170;1254;71706;-79
2023/07/12 00:25:14;;;;;;;;;;;;;;;18.02;65.46;100417.98;108207;1254;72671;-79
2023/07/12 00:27:41;;;;;;;;;;;;;;;18.01;65.62;100418.75;108158;1253;61351;-79
2023/07/12 00:30:15;;;;;;;;;;;;;;;17.99;65.70;100420.71;108177;1254;61155;-81
2023/07/12 00:32:42;;;;;;;;;;;;;;;17.90;65.62;100420.35;108164;1256;74723;-80
2023/07/12 00:35:14;;;;;;;;;;;;;;;17.78;65.80;100423.60;108049;1253;72755;-78
2023/07/12 00:37:43;;;;;;;;;;;;;;;17.73;66.09;100426.69;108036;1253;72520;-79
2023/07/12 00:40:23;;;;;;;;;;;;;;;17.70;66.34;100426.92;108132;1254;61944;-79
2023/07/12 00:42:51;;;;;;;;;;;;;;;17.66;66.33;100424.80;108100;1254;61220;-79
2023/07/12 00:45:20;;;;;;;;;;;;;;;17.64;66.40;100423.20;107995;1254;74713;-78
2023/07/12 00:47:46;;;;;;;;;;;;;;;17.61;66.34;100425.30;108030;1254;72572;-78
2023/07/12 00:50:18;;;;;;;;;;;;;;;17.57;66.28;100428.52;108070;1254;73871;-79
2023/07/12 00:52:52;;;;;;;;;;;;;;;17.55;66.34;100433.33;108147;1253;61141;-79
2023/07/12 00:55:42;;;;;;;;;;;;;;;17.51;66.27;100430.77;108189;1254;61162;-79
2023/07/12 00:58:18;;;;;;;;;;;;;;;17.50;66.22;100427.83;108165;1254;75648;-79
2023/07/12 01:00:46;;;;;;;;;;;;;;;17.49;66.17;100423.63;108200;1254;72461;-79
2023/07/12 01:03:19;;;;;;;;;;;;;;;17.49;66.18;100422.77;108124;1257;73758;-79
2023/07/12 01:06:08;;;;;;;;;;;;;;;17.49;66.07;100426.61;108116;1254;62766;-79
2023/07/12 01:08:41;;;;;;;;;;;;;;;17.49;66.00;100430.30;108060;1254;61372;-79
2023/07/12 01:11:11;;;;;;;;;;;;;;;17.47;65.78;100430.06;108008;1254;74584;-79
2023/07/12 01:13:51;;;;;;;;;;;;;;;17.45;65.65;100430.27;108155;1254;71215;-79
2023/07/12 01:16:39;;;;;;;;;;;;;;;17.43;65.36;100432.63;108097;1256;71166;-79
2023/07/12 01:19:34;;;;;;;;;;;;;;;17.41;65.21;100429.84;108191;1253;61727;-79
2023/07/12 01:22:11;;;;;;;;;;;;;;;17.40;65.08;100429.20;108159;1253;61103;-79
2023/07/12 01:24:41;;;;;;;;;;;;;;;17.40;64.98;100425.42;108167;1254;74678;-80
2023/07/12 01:27:20;;;;;;;;;;;;;;;17.40;64.77;100419.80;108247;1254;72728;-78
2023/07/12 01:30:07;;;;;;;;;;;;;;;17.40;64.75;100421.73;108166;1254;71752;-78
2023/07/12 01:32:47;;;;;;;;;;;;;;;17.40;64.76;100417.42;108194;1254;62997;-79
2023/07/12 01:35:37;;;;;;;;;;;;;;;17.37;64.58;100417.22;108209;1254;61000;-79
2023/07/12 01:38:08;;;;;;;;;;;;;;;17.33;64.42;100416.52;108167;1254;74586;-78
2023/07/12 01:40:40;;;;;;;;;;;;;;;17.30;64.41;100415.29;108234;1255;71451;-77
2023/07/12 01:43:23;;;;;;;;;;;;;;;17.29;64.42;100415.30;108205;1254;73949;-80
2023/07/12 01:46:06;;;;;;;;;;;;;;;17.29;64.44;100413.21;108270;1253;61897;-80
2023/07/12 01:48:44;;;;;;;;;;;;;;;17.30;64.47;100417.11;108226;1254;61211;-79
2023/07/12 01:51:22;;;;;;;;;;;;;;;17.26;64.61;100410.52;108228;1254;75748;-79
2023/07/12 01:54:14;;;;;;;;;;;;;;;17.19;64.81;100409.07;108224;1254;72538;-80
2023/07/12 01:57:15;;;;;;;;;;;;;;;17.16;64.89;100412.68;108058;1253;72876;-80
2023/07/12 02:00:01;;;;;;;;;;;;;;;17.13;64.93;100413.77;108162;1254;62038;-80
2023/07/12 02:03:00;;;;;;;;;;;;;;;17.11;64.99;100415.98;108118;1255;60949;-79
2023/07/12 02:06:01;;;;;;;;;;;;;;;17.10;65.10;100417.45;108240;1254;74785;-79
2023/07/12 02:08:57;;;;;;;;;;;;;;;17.11;65.16;100416.08;108221;1256;71326;-80
2023/07/12 02:11:47;;;;;;;;;;;;;;;17.14;65.10;100419.10;108247;1254;74350;-79
2023/07/12 02:14:41;;;;;;;;;;;;;;;17.13;64.99;100418.63;108166;1253;61792;-79
2023/07/12 02:17:29;;;;;;;;;;;;;;;17.13;64.95;100421.23;108117;1259;61330;-80
2023/07/12 02:20:25;;;;;;;;;;;;;;;17.14;64.92;100418.66;108224;1254;74657;-79
2023/07/12 02:23:10;;;;;;;;;;;;;;;17.16;65.06;100415.86;108193;1254;72693;-79
2023/07/12 02:26:12;;;;;;;;;;;;;;;17.17;65.07;100416.98;108099;1254;73693;-79
2023/07/12 02:29:09;;;;;;;;;;;;;;;17.16;65.21;100413.55;108127;1254;61824;-80
2023/07/12 02:31:59;;;;;;;;;;;;;;;17.17;65.33;100417.30;108258;1255;61207;-78
2023/07/12 02:34:50;;;;;;;;;;;;;;;17.25;65.27;100419.40;108152;1254;74841;-79
2023/07/12 02:37:36;;;;;;;;;;;;;;;17.29;65.44;100418.70;108223;1254;71022;-80
2023/07/12 02:40:06;;;;;;;;;;;;;;;17.31;65.66;100426.70;108107;1254;71176;-79
2023/07/12 02:42:33;;;;;;;;;;;;;;;17.35;66.01;100424.66;108267;1254;61182;-79
2023/07/12 02:45:00;;;;;;;;;;;;;;;17.38;66.20;100429.52;108252;1254;61101;-80
2023/07/12 02:47:27;;;;;;;;;;;;;;;17.40;66.45;100432.61;108243;1255;74562;-80
2023/07/12 02:49:54;;;;;;;;;;;;;;;17.42;66.65;100436.51;108211;1254;71795;-80
2023/07/12 02:52:23;;;;;;;;;;;;;;;17.45;66.83;100437.29;108202;1256;72782;-79
2023/07/12 02:54:50;;;;;;;;;;;;;;;17.47;66.90;100439.31;108210;1255;62004;-79
2023/07/12 02:57:17;;;;;;;;;;;;;;;17.49;67.09;100441.04;108202;1254;61132;-79
2023/07/12 02:59:44;;;;;;;;;;;;;;;17.54;67.12;100443.84;108167;1254;74830;-80
2023/07/12 03:02:11;;;;;;;;;;;;;;;17.60;67.08;100446.84;108122;1254;72579;-80
2023/07/12 03:04:38;;;;;;;;;;;;;;;17.65;67.03;100449.52;108149;1254;73057;-79
2023/07/12 03:07:05;;;;;;;;;;;;;;;17.68;66.91;100452.36;108157;1255;61975;-79
2023/07/12 03:09:32;;;;;;;;;;;;;;;17.73;66.78;100448.02;108239;1254;61200;-79
2023/07/12 03:11:59;;;;;;;;;;;;;;;17.79;66.48;100445.58;108188;1255;74791;-80
2023/07/12 03:14:27;;;;;;;;;;;;;;;17.86;66.22;100448.77;108154;1256;72855;-79
2023/07/12 03:16:54;;;;;;;;;;;;;;;17.94;65.75;100451.02;108114;1256;72633;-80
2023/07/12 03:19:21;;;;;;;;;;;;;;;18.00;65.28;100453.21;108119;1255;61276;-79
2023/07/12 03:21:48;;;;;;;;;;;;;;;18.06;64.92;100454.55;108286;1254;61137;-79
2023/07/12 03:24:14;;;;;;;;;;;;;;;18.10;64.43;100457.14;108203;1256;75227;-79
2023/07/12 03:26:42;;;;;;;;;;;;;;;18.13;63.77;100456.73;108220;1255;72400;-80
2023/07/12 03:29:09;;;;;;;;;;;;;;;18.15;63.38;100462.64;108216;1254;73536;-80
2023/07/12 03:31:36;;;;;;;;;;;;;;;18.17;62.93;100468.21;108162;1256;63847;-81
2023/07/12 03:34:03;;;;;;;;;;;;;;;18.16;62.47;100471.64;108222;1256;61108;-80
2023/07/12 03:36:31;;;;;;;;;;;;;;;18.16;62.35;100477.58;108208;1254;74654;-79
2023/07/12 03:38:58;;;;;;;;;;;;;;;18.18;62.09;100482.57;108199;1256;72724;-79
2023/07/12 03:41:25;;;;;;;;;;;;;;;18.22;61.59;100486.56;108241;1255;71347;-80
2023/07/12 03:43:53;;;;;;;;;;;;;;;18.27;61.29;100487.99;108143;1256;62039;-79
2023/07/12 03:46:20;;;;;;;;;;;;;;;18.33;60.93;100491.91;108238;1254;59789;-78
2023/07/12 03:48:47;;;;;;;;;;;;;;;18.41;60.68;100500.55;108134;1257;72986;-79
2023/07/12 03:51:16;;;;;;;;;;;;;;;18.50;60.13;100502.81;108222;1255;72567;-78
2023/07/12 03:53:43;;;;;;;;;;;;;;;18.59;59.53;100507.62;108011;1259;72577;-78
2023/07/12 03:56:10;;;;;;;;;;;;;;;18.68;59.35;100512.50;108226;1254;61154;-78
2023/07/12 03:58:37;;;;;;;;;;;;;;;18.79;58.87;100517.77;108231;1256;61141;-79
2023/07/12 04:01:05;;;;;;;;;;;;;;;18.84;58.15;100521.15;108251;1254;74692;-81
2023/07/12 04:03:34;;;;;;;;;;;;;;;18.85;57.75;100520.23;108234;1256;71360;-79
2023/07/12 04:06:03;;;;;;;;;;;;;;;18.85;57.72;100519.15;108209;1254;72739;-80
2023/07/12 04:08:30;;;;;;;;;;;;;;;18.90;57.98;100518.59;108069;1254;61787;-78
2023/07/12 04:10:57;;;;;;;;;;;;;;;18.98;57.61;100522.84;108244;1254;61155;-79
2023/07/12 04:13:24;;;;;;;;;;;;;;;19.03;57.01;100518.43;108182;1255;74312;-78
2023/07/12 04:15:53;;;;;;;;;;;;;;;19.10;56.54;100519.21;108293;1256;72976;-79
2023/07/12 04:18:21;;;;;;;;;;;;;;;19.13;55.31;100518.97;108209;1254;72765;-77
2023/07/12 04:20:48;;;;;;;;;;;;;;;19.14;55.01;100525.15;108143;1253;60453;-78
2023/07/12 04:23:15;;;;;;;;;;;;;;;19.19;54.48;100534.81;108222;1253;61217;-78
2023/07/12 04:25:42;;;;;;;;;;;;;;;19.20;53.35;100531.24;108236;1256;74684;-79
2023/07/12 04:28:09;;;;;;;;;;;;;;;19.21;53.16;100532.52;108205;1256;71688;-78
2023/07/12 04:30:36;;;;;;;;;;;;;;;19.26;52.92;100530.63;108166;1254;72162;-78
2023/07/12 04:33:04;;;;;;;;;;;;;;;19.29;52.38;100528.85;108145;1256;61831;-77
2023/07/12 04:35:36;;;;;;;;;;;;;;;19.30;52.31;100529.07;108073;1254;61152;-79
2023/07/12 04:38:03;;;;;;;;;;;;;;;19.36;52.38;100529.33;108277;1254;73828;-78
2023/07/12 04:40:30;;;;;;;;;;;;;;;19.42;52.15;100532.46;108151;1254;72928;-79
2023/07/12 04:42:59;;;;;;;;;;;;;;;19.48;52.09;100539.55;108128;1258;72742;-79
2023/07/12 04:45:25;;;;;;;;;;;;;;;19.54;51.93;100544.47;108172;1254;60397;-79
2023/07/12 04:47:52;;;;;;;;;;;;;;;19.60;51.83;100551.42;108163;1256;61275;-78
2023/07/12 04:50:19;;;;;;;;;;;;;;;19.66;51.32;100554.65;108250;1256;75680;-79
2023/07/12 04:52:46;;;;;;;;;;;;;;;19.72;51.15;100556.52;108233;1257;72742;-78
2023/07/12 04:55:20;;;;;;;;;;;;;;;19.77;50.67;100558.24;108215;1254;72289;-79
2023/07/12 04:57:48;;;;;;;;;;;;;;;19.84;50.09;100557.33;108231;1256;61174;-80
2023/07/12 05:00:15;;;;;;;;;;;;;;;19.92;49.80;100556.91;108221;1258;61220;-78
2023/07/12 05:02:42;;;;;;;;;;;;;;;19.98;48.78;100553.81;108210;1254;74669;-77
2023/07/12 05:05:11;;;;;;;;;;;;;;;20.02;48.56;100559.14;108168;1254;72676;-79
2023/07/12 05:07:39;;;;;;;;;;;;;;;20.09;48.45;100557.90;108202;1257;72787;-79
2023/07/12 05:10:07;;;;;;;;;;;;;;;20.18;48.36;100556.86;108190;1256;61145;-79
2023/07/12 05:12:37;;;;;;;;;;;;;;;20.27;47.89;100556.59;108235;1253;61086;-78
2023/07/12 05:15:04;;;;;;;;;;;;;;;20.34;47.60;100553.63;108223;1254;73210;-80
2023/07/12 05:17:32;;;;;;;;;;;;;;;20.42;47.11;100554.47;108202;1255;74092;-78
2023/07/12 05:19:59;;;;;;;;;;;;;;;20.47;46.43;100549.10;108214;1254;72799;-79
2023/07/12 05:22:26;;;;;;;;;;;;;;;20.52;45.99;100546.41;108200;1254;59217;-79
2023/07/12 05:24:53;;;;;;;;;;;;;;;20.56;46.07;100547.92;108189;1254;61253;-78
2023/07/12 05:27:20;;;;;;;;;;;;;;;20.62;45.25;100550.41;108225;1256;74800;-78
2023/07/12 05:29:47;;;;;;;;;;;;;;;20.67;44.37;100547.82;108171;1255;72517;-79
2023/07/12 05:32:16;;;;;;;;;;;;;;;20.70;43.40;100547.30;108147;1253;73358;-79
2023/07/12 05:34:43;;;;;;;;;;;;;;;20.71;43.01;100542.48;108279;1253;60794;-78
2023/07/12 05:37:10;;;;;;;;;;;;;;;20.74;42.50;100539.49;108266;1254;60158;-79
2023/07/12 05:39:38;;;;;;;;;;;;;;;20.79;42.59;100534.59;108289;1257;73367;-79
2023/07/12 05:42:05;;;;;;;;;;;;;;;20.88;42.60;100531.96;108296;1254;71421;-78
2023/07/12 05:44:32;;;;;;;;;;;;;;;20.97;42.30;100527.53;108320;1254;71466;-78
2023/07/12 05:46:59;;;;;;;;;;;;;;;21.08;42.10;100522.27;108226;1253;61282;-79
2023/07/12 05:49:26;;;;;;;;;;;;;;;21.17;40.72;100523.72;108217;1253;61153;-78
2023/07/12 05:51:53;;;;;;;;;;;;;;;21.23;40.37;100521.58;108125;1254;74293;-80
2023/07/12 05:54:20;;;;;;;;;;;;;;;21.28;39.44;100523.95;108382;1254;70786;-78
2023/07/12 05:56:48;;;;;;;;;;;;;;;21.32;38.46;100518.86;108344;1255;71677;-79
2023/07/12 05:59:16;;;;;;;;;;;;;;;21.31;38.16;100516.98;108330;1256;61221;-79
2023/07/12 06:01:43;;;;;;;;;;;;;;;21.35;38.49;100518.36;108400;1255;61189;-79
2023/07/12 06:04:11;;;;;;;;;;;;;;;21.41;38.55;100511.09;108353;1257;75550;-78
2023/07/12 06:06:42;;;;;;;;;;;;;;;21.50;38.52;100508.95;108360;1256;72759;-79
2023/07/12 06:09:09;;;;;;;;;;;;;;;21.58;37.61;100512.13;108341;1253;72902;-77
2023/07/12 06:11:39;;;;;;;;;;;;;;;21.63;36.51;100518.59;108332;1254;61018;-77
2023/07/12 06:14:06;;;;;;;;;;;;;;;21.67;36.39;100518.19;108329;1254;61151;-78
2023/07/12 06:16:35;;;;;;;;;;;;;;;21.72;36.74;100520.61;108357;1257;74644;-78
2023/07/12 06:19:07;;;;;;;;;;;;;;;21.80;36.76;100521.54;108384;1255;71505;-80
2023/07/12 06:21:34;;;;;;;;;;;;;;;21.89;36.29;100514.25;108374;1256;72809;-78
2023/07/12 06:24:05;;;;;;;;;;;;;;;21.97;35.69;100509.55;108289;1256;61249;-78
2023/07/12 06:26:48;;;;;;;;;;;;;;;21.99;35.27;100509.71;108270;1256;61218;-78
2023/07/12 06:29:48;;;;;;;;;;;;;;;22.06;34.92;100508.08;108112;1255;73495;-78
2023/07/12 06:33:07;;;;;;;;;;;;;;;22.13;35.09;100501.80;108073;1256;74102;-78
2023/07/12 06:35:34;;;;;;;;;;;;;;;22.21;35.17;100505.06;108197;1254;71445;-77
2023/07/12 06:38:01;;;;;;;;;;;;;;;22.27;34.95;100510.15;108423;1254;61340;-77
2023/07/12 06:40:28;;;;;;;;;;;;;;;22.36;35.12;100513.96;108282;1254;61145;-78
2023/07/12 06:42:55;;;;;;;;;;;;;;;22.44;34.67;100511.05;108238;1258;74675;-79
2023/07/12 06:45:22;;;;;;;;;;;;;;;22.51;34.56;100510.85;108253;1255;71391;-80
2023/07/12 06:47:49;;;;;;;;;;;;;;;22.58;34.42;100505.19;108235;1254;71558;-78
2023/07/12 06:50:18;;;;;;;;;;;;;;;22.65;34.15;100501.48;108280;1255;61091;-79
2023/07/12 06:52:45;;;;;;;;;;;;;;;22.69;34.37;100500.28;108125;1254;61104;-79
2023/07/12 06:55:12;;;;;;;;;;;;;;;22.75;33.31;100493.92;108067;1255;74550;-79
2023/07/12 06:57:39;;;;;;;;;;;;;;;22.80;33.35;100495.17;108103;1256;72616;-79
2023/07/12 07:00:07;;;;;;;;;;;;;;;22.86;33.02;100486.33;108076;1256;72399;-79
2023/07/12 07:02:36;;;;;;;;;;;;;;;22.91;32.89;100489.77;108099;1254;61154;-79
2023/07/12 07:05:04;;;;;;;;;;;;;;;22.96;32.67;100493.66;108162;1256;59394;-78
2023/07/12 07:07:31;;;;;;;;;;;;;;;23.01;32.89;100493.36;108080;1255;74730;-79
2023/07/12 07:09:58;;;;;;;;;;;;;;;23.07;32.89;100496.11;108096;1256;72629;-80
2023/07/12 07:12:25;;;;;;;;;;;;;;;23.13;32.90;100494.04;108073;1258;72706;-80
2023/07/12 07:14:52;;;;;;;;;;;;;;;23.22;33.20;100483.10;108027;1255;61269;-79
2023/07/12 07:17:20;;;;;;;;;;;;;;;23.32;32.60;100485.42;108080;1255;61239;-78
2023/07/12 07:19:47;;;;;;;;;;;;;;;23.34;32.04;100482.75;108057;1254;74746;-79
2023/07/12 07:22:14;;;;;;;;;;;;;;;23.36;32.49;100480.06;108103;1255;72638;-79
2023/07/12 07:24:41;;;;;;;;;;;;;;;23.41;32.38;100481.33;108072;1254;71830;-80
2023/07/12 07:27:08;;;;;;;;;;;;;;;23.48;32.55;100484.23;108171;1254;61120;-78
2023/07/12 07:29:36;;;;;;;;;;;;;;;23.52;32.23;100487.14;108157;1254;61072;-79
2023/07/12 07:32:03;;;;;;;;;;;;;;;23.54;32.57;100493.21;108245;1257;74572;-80
2023/07/12 07:34:34;;;;;;;;;;;;;;;23.62;32.37;100490.64;108224;1255;72750;-79
2023/07/12 07:37:01;;;;;;;;;;;;;;;23.71;32.89;100488.42;108226;1256;71567;-79
2023/07/12 07:39:29;;;;;;;;;;;;;;;23.85;32.24;100478.11;108179;1258;61252;-78
2023/07/12 07:41:57;;;;;;;;;;;;;;;23.89;31.10;100473.96;108255;1254;61203;-78
2023/07/12 07:44:26;;;;;;;;;;;;;;;23.90;30.59;100469.52;108194;1256;74705;-78
2023/07/12 07:46:55;;;;;;;;;;;;;;;23.88;31.23;100470.81;108234;1259;72561;-78
2023/07/12 07:49:22;;;;;;;;;;;;;;;23.96;31.30;100469.92;108207;1254;72724;-78
2023/07/12 07:51:49;;;;;;;;;;;;;;;24.04;30.60;100471.80;108244;1256;61130;-79
2023/07/12 07:54:16;;;;;;;;;;;;;;;24.06;29.86;100475.96;108210;1254;61119;-78
2023/07/12 07:56:44;;;;;;;;;;;;;;;24.05;30.48;100471.41;108219;1258;73758;-79
2023/07/12 07:59:12;;;;;;;;;;;;;;;24.16;30.58;100470.53;108237;1254;72768;-79
2023/07/12 08:01:41;;;;;;;;;;;;;;;24.28;30.31;100479.80;108297;1258;70850;-77
2023/07/12 08:04:08;;;;;;;;;;;;;;;24.34;30.19;100476.23;108233;1256;60177;-77
2023/07/12 08:06:37;;;;;;;;;;;;;;;24.40;30.31;100476.83;108316;1254;59977;-79
2023/07/12 08:09:06;;;;;;;;;;;;;;;24.53;30.93;100473.42;108237;1259;73447;-78
2023/07/12 08:11:34;;;;;;;;;;;;;;;24.69;30.89;100471.38;108291;1254;72827;-79
2023/07/12 08:14:08;;;;;;;;;;;;;;;24.79;30.37;100467.33;108215;1258;72797;-78
2023/07/12 08:16:37;;;;;;;;;;;;;;;24.80;30.23;100466.50;108235;1259;61674;-78
2023/07/12 08:19:05;;;;;;;;;;;;;;;24.78;29.48;100472.61;108174;1258;61355;-76
2023/07/12 08:21:43;;;;;;;;;;;;;;;24.77;29.33;100465.15;108111;1256;74670;-76
2023/07/12 08:24:12;;;;;;;;;;;;;;;24.73;29.54;100462.67;108150;1254;71463;-77
2023/07/12 08:26:38;;;;;;;;;;;;;;;24.71;29.80;100470.57;108149;1258;71293;-80
2023/07/12 08:29:12;;;;;;;;;;;;;;;24.64;29.83;100472.20;108126;1254;61139;-78
2023/07/12 08:31:40;;;;;;;;;;;;;;;24.51;29.30;100478.29;108170;1259;61270;-77
2023/07/12 08:34:07;;;;;;;;;;;;;;;24.45;29.49;100476.58;108045;1259;73292;-80
2023/07/12 08:36:35;;;;;;;;;;;;;;;24.53;29.06;100471.46;108219;1254;72583;-79
2023/07/12 08:39:02;;;;;;;;;;;;;;;24.60;28.81;100466.33;108147;1254;72707;-78
2023/07/12 08:41:30;;;;;;;;;;;;;;;24.74;29.36;100466.33;108230;1254;61123;-78
2023/07/12 08:43:57;;;;;;;;;;;;;;;24.97;29.80;100463.66;108151;1254;61140;-78
2023/07/12 08:46:25;;;;;;;;;;;;;;;25.20;29.72;100466.14;108196;1254;74641;-79
2023/07/12 08:48:53;;;;;;;;;;;;;;;25.33;29.41;100464.38;108197;1257;71745;-78
2023/07/12 08:51:31;;;;;;;;;;;;;;;25.45;29.24;100455.59;108154;1254;71313;-78
2023/07/12 08:53:57;;;;;;;;;;;;;;;25.55;28.77;100459.68;108180;1256;61167;-79
2023/07/12 08:56:26;;;;;;;;;;;;;;;25.55;28.11;100458.41;108215;1259;61256;-78
2023/07/12 08:58:53;;;;;;;;;;;;;;;25.49;28.32;100460.35;108106;1258;74684;-78
2023/07/12 09:01:27;;;;;;;;;;;;;;;25.51;28.31;100463.73;108156;1254;71728;-78
2023/07/12 09:03:53;;;;;;;;;;;;;;;25.48;28.60;100465.02;108214;1258;71714;-81
2023/07/12 09:06:20;;;;;;;;;;;;;;;25.51;28.97;100459.91;108138;1255;61353;-79
2023/07/12 09:08:49;;;;;;;;;;;;;;;25.57;29.73;100456.67;108153;1254;61077;-79
2023/07/12 09:11:17;;;;;;;;;;;;;;;25.60;29.19;100455.70;108213;1258;74692;-79
2023/07/12 09:13:46;;;;;;;;;;;;;;;25.55;29.63;100460.92;108057;1260;71513;-79
2023/07/12 09:16:26;;;;;;;;;;;;;;;25.52;29.30;100463.91;108163;1254;72624;-79
2023/07/12 09:18:58;;;;;;;;;;;;;;;25.58;29.79;100454.57;108142;1258;61258;-79
2023/07/12 09:21:26;;;;;;;;;;;;;;;25.77;29.67;100449.55;108077;1254;61018;-79
2023/07/12 09:23:59;;;;;;;;;;;;;;;25.93;28.74;100447.91;108151;1257;75137;-79
2023/07/12 09:26:27;;;;;;;;;;;;;;;25.97;28.56;100445.71;108127;1254;72962;-79
2023/07/12 09:29:03;;;;;;;;;;;;;;;26.02;28.57;100450.41;108089;1255;72449;-79
2023/07/12 09:31:29;;;;;;;;;;;;;;;26.11;27.99;100450.57;108104;1255;61247;-80
2023/07/12 09:34:00;;;;;;;;;;;;;;;26.17;27.87;100444.58;108131;1254;61083;-79
2023/07/12 09:36:27;;;;;;;;;;;;;;;26.23;28.54;100443.81;108118;1257;75100;-80
2023/07/12 09:38:59;;;;;;;;;;;;;;;26.27;27.69;100442.87;108110;1258;72917;-78
2023/07/12 09:41:26;;;;;;;;;;;;;;;26.17;28.16;100448.02;108146;1257;72597;-79
2023/07/12 09:43:54;;;;;;;;;;;;;;;26.16;28.45;100444.48;108182;1254;61202;-78
2023/07/12 09:46:26;;;;;;;;;;;;;;;26.23;28.67;100448.11;108172;1254;61329;-77
2023/07/12 09:48:59;;;;;;;;;;;;;;;26.33;27.79;100445.30;108115;1254;75380;-77
2023/07/12 09:51:25;;;;;;;;;;;;;;;26.37;27.51;100439.67;108139;1254;71665;-77
2023/07/12 09:53:53;;;;;;;;;;;;;;;26.40;27.93;100440.80;108176;1254;72706;-78
2023/07/12 09:56:33;;;;;;;;;;;;;;;26.41;27.62;100446.70;108180;1254;61142;-77
2023/07/12 09:59:11;;;;;;;;;;;;;;;26.49;27.10;100445.66;108143;1254;61246;-77
2023/07/12 10:01:45;;;;;;;;;;;;;;;26.60;26.53;100444.89;108199;1254;72668;-77
2023/07/12 10:04:31;;;;;;;;;;;;;;;26.65;26.79;100445.44;108131;1254;74093;-79
2023/07/12 10:06:58;;;;;;;;;;;;;;;26.74;26.21;100440.18;108183;1254;72401;-78
2023/07/12 10:09:27;;;;;;;;;;;;;;;26.78;26.00;100438.67;108132;1257;61325;-79
2023/07/12 10:11:59;;;;;;;;;;;;;;;26.84;25.93;100438.21;108176;1253;61133;-79
2023/07/12 10:14:29;;;;;;;;;;;;;;;26.85;26.26;100434.30;108203;1253;73137;-78
2023/07/12 10:16:56;;;;;;;;;;;;;;;26.89;25.90;100437.34;108165;1254;71651;-79
2023/07/12 10:19:24;;;;;;;;;;;;;;;26.85;25.79;100436.03;108148;1254;71283;-78
2023/07/12 10:21:51;;;;;;;;;;;;;;;26.69;25.63;100441.73;108212;1253;60214;-79
2023/07/12 10:24:18;;;;;;;;;;;;;;;26.38;25.96;100449.61;108184;1254;61376;-77
2023/07/12 10:26:45;;;;;;;;;;;;;;;26.13;26.22;100441.77;108199;1257;74771;-78
2023/07/12 10:29:21;;;;;;;;;;;;;;;25.99;26.13;100434.73;108035;1260;72568;-79
2023/07/12 10:31:50;;;;;;;;;;;;;;;26.05;26.78;100427.95;108151;1254;72717;-77
2023/07/12 10:34:28;;;;;;;;;;;;;;;26.19;27.14;100430.70;108107;1257;61263;-78
2023/07/12 10:37:01;;;;;;;;;;;;;;;26.30;26.74;100427.83;108095;1254;61256;-77
2023/07/12 10:39:28;;;;;;;;;;;;;;;26.38;27.62;100427.88;108129;1254;73938;-78
2023/07/12 10:42:03;;;;;;;;;;;;;;;26.55;27.01;100422.04;108152;1257;73145;-80
2023/07/12 10:44:31;;;;;;;;;;;;;;;26.71;26.55;100423.14;108110;1254;73756;-80
2023/07/12 10:46:59;;;;;;;;;;;;;;;26.83;26.45;100418.46;108068;1254;61120;-79
2023/07/12 10:49:47;;;;;;;;;;;;;;;26.99;26.48;100418.75;108149;1254;61121;-79
2023/07/12 10:52:17;;;;;;;;;;;;;;;27.20;26.73;100409.73;108150;1254;74749;-79
2023/07/12 10:55:03;;;;;;;;;;;;;;;27.40;26.28;100406.27;108163;1254;70333;-81
2023/07/12 10:57:37;;;;;;;;;;;;;;;27.45;25.31;100401.40;108184;1254;72700;-79
2023/07/12 11:00:12;;;;;;;;;;;;;;;27.40;24.85;100404.40;108141;1255;61276;-78
2023/07/12 11:02:44;;;;;;;;;;;;;;;27.27;24.93;100403.38;108152;1254;61389;-80
2023/07/12 11:05:29;;;;;;;;;;;;;;;27.21;25.23;100403.70;108177;1254;74878;-79
2023/07/12 11:07:56;;;;;;;;;;;;;;;27.20;25.18;100407.13;108119;1254;73130;-78
2023/07/12 11:10:24;;;;;;;;;;;;;;;27.27;25.65;100402.83;108127;1254;72665;-78
2023/07/12 11:12:53;;;;;;;;;;;;;;;27.42;25.77;100402.69;108110;1254;60881;-78
2023/07/12 11:15:22;;;;;;;;;;;;;;;27.51;25.91;100400.04;108056;1255;62029;-79
2023/07/12 11:17:50;;;;;;;;;;;;;;;27.64;25.83;100402.92;108175;1254;74575;-79
2023/07/12 11:20:21;;;;;;;;;;;;;;;27.63;25.58;100403.70;108142;1254;73016;-79
2023/07/12 11:22:51;;;;;;;;;;;;;;;27.48;25.63;100406.99;108101;1257;73673;-78
2023/07/12 11:25:24;;;;;;;;;;;;;;;27.35;25.21;100407.40;108070;1254;61092;-78
2023/07/12 11:28:01;;;;;;;;;;;;;;;27.12;25.52;100411.80;108139;1254;61475;-77
2023/07/12 11:30:28;;;;;;;;;;;;;;;26.82;25.96;100413.05;108032;1254;74768;-78
2023/07/12 11:33:16;;;;;;;;;;;;;;;26.65;26.24;100412.02;108107;1254;72844;-78
2023/07/12 11:35:47;;;;;;;;;;;;;;;26.54;26.87;100414.29;103786;1254;5646222;-79
2023/07/12 11:38:27;;;;;;;;;;;;;;;26.43;27.69;100412.69;108067;1257;61118;-79
2023/07/12 11:40:54;;;;;;;;;;;;;;;26.40;27.73;100420.69;108120;1254;61086;-79
2023/07/12 11:43:29;;;;;;;;;;;;;;;26.42;27.64;100412.91;108121;1254;75669;-79
2023/07/12 11:46:12;;;;;;;;;;;;;;;26.66;27.45;100410.09;108144;1254;73701;-79
2023/07/12 11:48:56;;;;;;;;;;;;;;;26.86;27.42;100410.59;108049;1257;73567;-80
2023/07/12 11:51:35;;;;;;;;;;;;;;;27.09;27.28;100404.71;108101;1254;61127;-80
2023/07/12 11:54:21;;;;;;;;;;;;;;;27.09;26.85;100407.29;108077;1253;61256;-79
2023/07/12 11:56:49;;;;;;;;;;;;;;;26.94;26.35;100401.53;108105;1257;74746;-78
2023/07/12 11:59:17;;;;;;;;;;;;;;;26.90;26.55;100398.60;108053;1254;71456;-79
2023/07/12 12:01:44;;;;;;;;;;;;;;;27.00;26.69;100403.73;108087;1257;72500;-79
2023/07/12 12:04:20;;;;;;;;;;;;;;;27.14;26.32;100405.25;108120;1257;61238;-79
2023/07/12 12:06:48;;;;;;;;;;;;;;;27.27;26.07;100396.41;108182;1253;63264;-79
2023/07/12 12:09:15;;;;;;;;;;;;;;;27.42;26.28;100394.85;108114;1257;74647;-80
2023/07/12 12:11:42;;;;;;;;;;;;;;;27.49;26.36;100390.08;108144;1254;72552;-80
2023/07/12 12:14:15;;;;;;;;;;;;;;;27.57;26.35;100388.89;108106;1254;72751;-78
2023/07/12 12:16:47;;;;;;;;;;;;;;;27.62;26.14;100386.13;108187;1254;61180;-80
2023/07/12 12:19:15;;;;;;;;;;;;;;;27.60;25.46;100383.52;108085;1254;61154;-79
2023/07/12 12:21:46;;;;;;;;;;;;;;;27.55;25.66;100381.82;108014;1254;74439;-79
2023/07/12 12:24:17;;;;;;;;;;;;;;;27.51;26.11;100373.08;108091;1254;72831;-79
2023/07/12 12:26:45;;;;;;;;;;;;;;;27.48;25.73;100373.92;108107;1257;72502;-79
2023/07/12 12:29:19;;;;;;;;;;;;;;;27.50;26.46;100376.13;108092;1254;61260;-79
2023/07/12 12:31:50;;;;;;;;;;;;;;;27.60;26.16;100375.52;108084;1254;61343;-80
2023/07/12 12:34:19;;;;;;;;;;;;;;;27.76;26.43;100369.81;108105;1254;74537;-79
2023/07/12 12:37:04;;;;;;;;;;;;;;;27.96;26.25;100368.35;108181;1257;72498;-79
2023/07/12 12:39:33;;;;;;;;;;;;;;;28.19;25.58;100372.53;108077;1254;72546;-80
2023/07/12 12:42:16;;;;;;;;;;;;;;;28.36;25.32;100368.20;108006;1256;61193;-77
2023/07/12 12:44:43;;;;;;;;;;;;;;;28.53;25.37;100366.83;108123;1254;61133;-79
2023/07/12 12:47:17;;;;;;;;;;;;;;;28.68;25.45;100360.23;108112;1254;74405;-79